Clinton, Michigan
Current Conditions -  °F | °C
As of 11:53 PM on Sunday 21 Dec 2014 (Local Time) from KARB Reporting Station
Haze Haze  
Wind Chill: 20°   Ceiling: Unl
Heat Index: 27°   Visibility: 6mi
Dew Point: 24°   Wind: 6mph
Humidity: 89%   Direction: 100°E
Pressure: 30.17"   Gusts: NA
Location:  42.07°N, 83.97°W
Report Text: KARB 220453Z AUTO 10005KT 6SM BR CLR M03/M04 A3017 RMK AO2 SLP225 T10281044 400111072
Loading
Personal Weather Stations






























Interactive Weather Map New forecast layout! Learn more

10-Day Weather Forecast

Advertisements
Track Severe Weather on mobile